sensor_id;sensor_type;location;lat;lon;timestamp;pressure;altitude;pressure_sealevel;temperature;humidity
63552;BME280;49698;48.072;7.800;2023-02-28T00:01:38;99942.72;;;-0.26;56.05
63552;BME280;49698;48.072;7.800;2023-02-28T00:04:06;99942.09;;;-0.28;56.37
63552;BME280;49698;48.072;7.800;2023-02-28T00:06:35;99937.03;;;-0.30;56.46
63552;BME280;49698;48.072;7.800;2023-02-28T00:09:04;99934.38;;;-0.30;56.41
63552;BME280;49698;48.072;7.800;2023-02-28T00:11:32;99936.59;;;-0.33;56.43
63552;BME280;49698;48.072;7.800;2023-02-28T00:14:00;99937.81;;;-0.36;56.44
63552;BME280;49698;48.072;7.800;2023-02-28T00:16:29;99934.56;;;-0.38;56.44
63552;BME280;49698;48.072;7.800;2023-02-28T00:18:57;99933.94;;;-0.40;56.55
63552;BME280;49698;48.072;7.800;2023-02-28T00:21:25;99935.16;;;-0.42;56.92
63552;BME280;49698;48.072;7.800;2023-02-28T00:23:53;99939.00;;;-0.45;57.12
63552;BME280;49698;48.072;7.800;2023-02-28T00:26:21;99932.28;;;-0.47;56.92
63552;BME280;49698;48.072;7.800;2023-02-28T00:28:51;99931.66;;;-0.50;57.06
63552;BME280;49698;48.072;7.800;2023-02-28T00:31:21;99932.66;;;-0.51;56.89
63552;BME280;49698;48.072;7.800;2023-02-28T00:33:51;99928.41;;;-0.52;57.09
63552;BME280;49698;48.072;7.800;2023-02-28T00:36:20;99933.88;;;-0.53;56.94
63552;BME280;49698;48.072;7.800;2023-02-28T00:38:48;99925.16;;;-0.54;57.58
63552;BME280;49698;48.072;7.800;2023-02-28T00:41:16;99938.53;;;-0.55;57.52
63552;BME280;49698;48.072;7.800;2023-02-28T00:43:44;99930.63;;;-0.55;57.70
63552;BME280;49698;48.072;7.800;2023-02-28T00:46:12;99931.25;;;-0.53;57.60
63552;BME280;49698;48.072;7.800;2023-02-28T00:48:40;99928.63;;;-0.53;57.71
63552;BME280;49698;48.072;7.800;2023-02-28T00:51:09;99939.16;;;-0.53;57.45
63552;BME280;49698;48.072;7.800;2023-02-28T00:53:37;99940.19;;;-0.54;57.53
63552;BME280;49698;48.072;7.800;2023-02-28T00:56:05;99931.25;;;-0.53;57.91
63552;BME280;49698;48.072;7.800;2023-02-28T00:58:33;99934.91;;;-0.54;58.01
63552;BME280;49698;48.072;7.800;2023-02-28T01:01:01;99937.34;;;-0.53;58.05
63552;BME280;49698;48.072;7.800;2023-02-28T01:03:30;99938.38;;;-0.54;57.92
63552;BME280;49698;48.072;7.800;2023-02-28T01:05:58;99935.72;;;-0.54;58.09
63552;BME280;49698;48.072;7.800;2023-02-28T01:08:27;99935.09;;;-0.56;58.09
63552;BME280;49698;48.072;7.800;2023-02-28T01:10:55;99932.44;;;-0.56;58.12
63552;BME280;49698;48.072;7.800;2023-02-28T01:13:23;99935.91;;;-0.55;58.31
63552;BME280;49698;48.072;7.800;2023-02-28T01:15:54;99934.91;;;-0.54;58.60
63552;BME280;49698;48.072;7.800;2023-02-28T01:18:23;99925.97;;;-0.53;58.43
63552;BME280;49698;48.072;7.800;2023-02-28T01:20:52;99932.88;;;-0.52;58.32
63552;BME280;49698;48.072;7.800;2023-02-28T01:23:21;99921.50;;;-0.53;58.53
63552;BME280;49698;48.072;7.800;2023-02-28T01:25:51;99926.78;;;-0.53;58.75
63552;BME280;49698;48.072;7.800;2023-02-28T01:28:20;99921.28;;;-0.51;58.61
63552;BME280;49698;48.072;7.800;2023-02-28T01:30:49;99924.56;;;-0.49;58.65
63552;BME280;49698;48.072;7.800;2023-02-28T01:33:18;99917.44;;;-0.48;58.79
63552;BME280;49698;48.072;7.800;2023-02-28T01:35:46;99919.06;;;-0.47;58.79
63552;BME280;49698;48.072;7.800;2023-02-28T01:38:14;99923.53;;;-0.48;58.91
63552;BME280;49698;48.072;7.800;2023-02-28T01:40:48;99918.91;;;-0.46;58.96
63552;BME280;49698;48.072;7.800;2023-02-28T01:43:20;99915.22;;;-0.45;59.00
63552;BME280;49698;48.072;7.800;2023-02-28T01:45:49;99917.06;;;-0.45;58.56
63552;BME280;49698;48.072;7.800;2023-02-28T01:48:18;99915.81;;;-0.43;58.42
63552;BME280;49698;48.072;7.800;2023-02-28T01:50:47;99912.19;;;-0.42;58.58
63552;BME280;49698;48.072;7.800;2023-02-28T01:53:19;99912.00;;;-0.40;58.55
63552;BME280;49698;48.072;7.800;2023-02-28T01:55:51;99912.63;;;-0.38;58.82
63552;BME280;49698;48.072;7.800;2023-02-28T01:58:22;99906.31;;;-0.37;58.82
63552;BME280;49698;48.072;7.800;2023-02-28T02:00:51;99912.41;;;-0.37;58.95
63552;BME280;49698;48.072;7.800;2023-02-28T02:03:20;99903.28;;;-0.34;59.03
63552;BME280;49698;48.072;7.800;2023-02-28T02:05:48;99904.69;;;-0.32;58.81
63552;BME280;49698;48.072;7.800;2023-02-28T02:08:19;99897.56;;;-0.31;58.74
63552;BME280;49698;48.072;7.800;2023-02-28T02:10:49;99893.94;;;-0.30;59.21
63552;BME280;49698;48.072;7.800;2023-02-28T02:13:51;99906.94;;;-0.29;58.84
63552;BME280;49698;48.072;7.800;2023-02-28T02:16:28;99899.66;;;-0.27;58.78
63552;BME280;49698;48.072;7.800;2023-02-28T02:19:14;99898.41;;;-0.24;59.06
63552;BME280;49698;48.072;7.800;2023-02-28T02:22:00;99903.31;;;-0.21;58.92
63552;BME280;49698;48.072;7.800;2023-02-28T02:24:54;99892.53;;;-0.19;58.98
63552;BME280;49698;48.072;7.800;2023-02-28T02:27:48;99893.16;;;-0.17;58.89
63552;BME280;49698;48.072;7.800;2023-02-28T02:36:38;99896.75;;;-0.32;59.72
63552;BME280;49698;48.072;7.800;2023-02-28T02:39:14;99896.97;;;-0.33;60.02
63552;BME280;49698;48.072;7.800;2023-02-28T02:41:47;99897.59;;;-0.38;60.30
63552;BME280;49698;48.072;7.800;2023-02-28T02:44:21;99897.97;;;-0.41;60.69
63552;BME280;49698;48.072;7.800;2023-02-28T02:46:54;99889.41;;;-0.43;60.72
63552;BME280;49698;48.072;7.800;2023-02-28T02:49:30;99890.66;;;-0.45;60.82
63552;BME280;49698;48.072;7.800;2023-02-28T02:52:02;99892.47;;;-0.46;60.99
63552;BME280;49698;48.072;7.800;2023-02-28T02:54:35;99888.19;;;-0.47;61.22
63552;BME280;49698;48.072;7.800;2023-02-28T02:57:07;99884.94;;;-0.49;61.25
63552;BME280;49698;48.072;7.800;2023-02-28T02:59:38;99884.94;;;-0.49;61.39
63552;BME280;49698;48.072;7.800;2023-02-28T03:02:10;99884.13;;;-0.50;61.31
63552;BME280;49698;48.072;7.800;2023-02-28T03:04:42;99878.84;;;-0.50;61.61
63552;BME280;49698;48.072;7.800;2023-02-28T03:07:12;99886.56;;;-0.48;61.55
63552;BME280;49698;48.072;7.800;2023-02-28T03:09:40;99881.28;;;-0.48;61.33
63552;BME280;49698;48.072;7.800;2023-02-28T03:12:11;99877.22;;;-0.51;61.86
63552;BME280;49698;48.072;7.800;2023-02-28T03:14:51;99874.38;;;-0.49;61.57
63552;BME280;49698;48.072;7.800;2023-02-28T03:17:45;99878.66;;;-0.48;61.62
63552;BME280;49698;48.072;7.800;2023-02-28T03:20:27;99876.00;;;-0.48;61.71
63552;BME280;49698;48.072;7.800;2023-02-28T03:23:10;99875.19;;;-0.48;61.71
63552;BME280;49698;48.072;7.800;2023-02-28T03:25:52;99877.63;;;-0.47;62.07
63552;BME280;49698;48.072;7.800;2023-02-28T03:28:30;99885.56;;;-0.47;61.71
63552;BME280;49698;48.072;7.800;2023-02-28T03:31:06;99878.66;;;-0.48;61.95
63552;BME280;49698;48.072;7.800;2023-02-28T03:33:38;99872.78;;;-0.50;61.97
63552;BME280;49698;48.072;7.800;2023-02-28T03:36:10;99873.56;;;-0.50;62.09
63552;BME280;49698;48.072;7.800;2023-02-28T03:38:45;99872.34;;;-0.47;62.50
63552;BME280;49698;48.072;7.800;2023-02-28T03:41:16;99879.28;;;-0.46;62.20
63552;BME280;49698;48.072;7.800;2023-02-28T03:43:50;99876.81;;;-0.47;62.22
63552;BME280;49698;48.072;7.800;2023-02-28T03:46:24;99879.47;;;-0.47;62.75
63552;BME280;49698;48.072;7.800;2023-02-28T03:48:57;99879.28;;;-0.46;62.58
63552;BME280;49698;48.072;7.800;2023-02-28T03:51:30;99877.63;;;-0.47;62.62
63552;BME280;49698;48.072;7.800;2023-02-28T03:54:06;99877.84;;;-0.48;62.80
63552;BME280;49698;48.072;7.800;2023-02-28T03:56:38;99884.75;;;-0.47;62.86
63552;BME280;49698;48.072;7.800;2023-02-28T03:59:13;99887.38;;;-0.47;63.03
63552;BME280;49698;48.072;7.800;2023-02-28T04:01:45;99883.34;;;-0.50;62.93
63552;BME280;49698;48.072;7.800;2023-02-28T04:04:15;99879.84;;;-0.51;63.37
63552;BME280;49698;48.072;7.800;2023-02-28T04:06:45;99880.06;;;-0.52;63.33
63552;BME280;49698;48.072;7.800;2023-02-28T04:09:14;99876.59;;;-0.53;63.47
63552;BME280;49698;48.072;7.800;2023-02-28T04:11:44;99885.34;;;-0.52;63.28
63552;BME280;49698;48.072;7.800;2023-02-28T04:14:12;99880.06;;;-0.52;63.50
63552;BME280;49698;48.072;7.800;2023-02-28T04:16:41;99887.97;;;-0.52;63.68
63552;BME280;49698;48.072;7.800;2023-02-28T04:19:11;99882.09;;;-0.54;63.82
63552;BME280;49698;48.072;7.800;2023-02-28T04:21:41;99885.72;;;-0.55;63.93
63552;BME280;49698;48.072;7.800;2023-02-28T04:24:12;99888.59;;;-0.57;63.89
63552;BME280;49698;48.072;7.800;2023-02-28T04:26:44;99894.25;;;-0.60;64.04
63552;BME280;49698;48.072;7.800;2023-02-28T04:29:18;99895.44;;;-0.62;64.09
63552;BME280;49698;48.072;7.800;2023-02-28T04:31:46;99895.44;;;-0.62;64.06
63552;BME280;49698;48.072;7.800;2023-02-28T04:34:15;99892.22;;;-0.64;64.50
63552;BME280;49698;48.072;7.800;2023-02-28T04:36:45;99896.47;;;-0.63;63.94
63552;BME280;49698;48.072;7.800;2023-02-28T04:39:26;99890.16;;;-0.62;64.41
63552;BME280;49698;48.072;7.800;2023-02-28T04:41:55;99892.00;;;-0.63;64.34
63552;BME280;49698;48.072;7.800;2023-02-28T04:44:24;99890.16;;;-0.62;64.49
63552;BME280;49698;48.072;7.800;2023-02-28T04:46:52;99892.41;;;-0.59;64.59
63552;BME280;49698;48.072;7.800;2023-02-28T04:49:20;99898.13;;;-0.56;64.23
63552;BME280;49698;48.072;7.800;2023-02-28T04:51:48;99900.16;;;-0.51;64.18
63552;BME280;49698;48.072;7.800;2023-02-28T04:54:16;99899.38;;;-0.45;63.85
63552;BME280;49698;48.072;7.800;2023-02-28T04:56:44;99894.31;;;-0.40;63.73
63552;BME280;49698;48.072;7.800;2023-02-28T04:59:14;99899.19;;;-0.37;63.45
63552;BME280;49698;48.072;7.800;2023-02-28T05:01:45;99907.34;;;-0.32;63.35
63552;BME280;49698;48.072;7.800;2023-02-28T05:04:14;99898.41;;;-0.31;63.29
63552;BME280;49698;48.072;7.800;2023-02-28T05:06:42;99907.16;;;-0.30;63.55
63552;BME280;49698;48.072;7.800;2023-02-28T05:09:10;99915.06;;;-0.30;63.41
63552;BME280;49698;48.072;7.800;2023-02-28T05:11:39;99904.50;;;-0.30;63.51
63552;BME280;49698;48.072;7.800;2023-02-28T05:14:11;99908.16;;;-0.31;63.25
63552;BME280;49698;48.072;7.800;2023-02-28T05:16:40;99913.63;;;-0.33;63.54
63552;BME280;49698;48.072;7.800;2023-02-28T05:19:08;99912.63;;;-0.32;63.34
63552;BME280;49698;48.072;7.800;2023-02-28T05:21:38;99909.97;;;-0.32;63.39
63552;BME280;49698;48.072;7.800;2023-02-28T05:24:09;99905.72;;;-0.33;63.47
63552;BME280;49698;48.072;7.800;2023-02-28T05:26:39;99925.00;;;-0.32;63.43
63552;BME280;49698;48.072;7.800;2023-02-28T05:29:08;99920.75;;;-0.33;63.40
63552;BME280;49698;48.072;7.800;2023-02-28T05:31:38;99926.84;;;-0.33;63.94
63552;BME280;49698;48.072;7.800;2023-02-28T05:34:07;99925.81;;;-0.32;63.77
63552;BME280;49698;48.072;7.800;2023-02-28T05:36:38;99920.34;;;-0.30;64.02
63552;BME280;49698;48.072;7.800;2023-02-28T05:39:06;99925.00;;;-0.32;64.13
63552;BME280;49698;48.072;7.800;2023-02-28T05:41:40;99930.50;;;-0.34;64.04
63552;BME280;49698;48.072;7.800;2023-02-28T05:44:08;99936.59;;;-0.33;63.85
63552;BME280;49698;48.072;7.800;2023-02-28T05:46:37;99934.16;;;-0.35;64.13
63552;BME280;49698;48.072;7.800;2023-02-28T05:49:06;99935.78;;;-0.34;64.40
63552;BME280;49698;48.072;7.800;2023-02-28T05:51:34;99929.69;;;-0.34;64.47
63552;BME280;49698;48.072;7.800;2023-02-28T05:54:06;99931.31;;;-0.33;64.29
63552;BME280;49698;48.072;7.800;2023-02-28T05:56:35;99938.44;;;-0.34;64.18
63552;BME280;49698;48.072;7.800;2023-02-28T05:59:05;99936.59;;;-0.33;64.24
63552;BME280;49698;48.072;7.800;2023-02-28T06:01:35;99934.97;;;-0.34;64.09
63552;BME280;49698;48.072;7.800;2023-02-28T06:04:05;99934.16;;;-0.35;64.40
63552;BME280;49698;48.072;7.800;2023-02-28T06:06:34;99933.16;;;-0.34;64.24
63552;BME280;49698;48.072;7.800;2023-02-28T06:09:04;99930.50;;;-0.34;64.41
63552;BME280;49698;48.072;7.800;2023-02-28T06:11:32;99933.16;;;-0.34;64.53
63552;BME280;49698;48.072;7.800;2023-02-28T06:14:00;99938.22;;;-0.32;65.05
63552;BME280;49698;48.072;7.800;2023-02-28T06:16:30;99934.16;;;-0.35;64.96
63552;BME280;49698;48.072;7.800;2023-02-28T06:19:01;99936.56;;;-0.40;65.51
63552;BME280;49698;48.072;7.800;2023-02-28T06:21:29;99943.88;;;-0.42;65.78
63552;BME280;49698;48.072;7.800;2023-02-28T06:23:59;99946.91;;;-0.45;66.08
63552;BME280;49698;48.072;7.800;2023-02-28T06:26:27;99944.28;;;-0.45;66.27
63552;BME280;49698;48.072;7.800;2023-02-28T06:28:55;99957.69;;;-0.46;66.49
63552;BME280;49698;48.072;7.800;2023-02-28T06:31:23;99950.59;;;-0.46;66.59
63552;BME280;49698;48.072;7.800;2023-02-28T06:33:52;99954.03;;;-0.45;66.77
63552;BME280;49698;48.072;7.800;2023-02-28T06:36:20;99954.84;;;-0.45;66.88
63552;BME280;49698;48.072;7.800;2023-02-28T06:38:49;99963.38;;;-0.43;66.96
63552;BME280;49698;48.072;7.800;2023-02-28T06:41:23;99962.16;;;-0.40;66.97
63552;BME280;49698;48.072;7.800;2023-02-28T06:43:52;99960.34;;;-0.40;66.89
63552;BME280;49698;48.072;7.800;2023-02-28T06:46:21;99963.78;;;-0.39;66.76
63552;BME280;49698;48.072;7.800;2023-02-28T06:48:49;99968.91;;;-0.38;67.32
63552;BME280;49698;48.072;7.800;2023-02-28T06:51:19;99973.53;;;-0.40;67.18
63552;BME280;49698;48.072;7.800;2023-02-28T06:53:49;99970.09;;;-0.40;67.26
63552;BME280;49698;48.072;7.800;2023-02-28T06:56:17;99976.81;;;-0.38;67.27
63552;BME280;49698;48.072;7.800;2023-02-28T06:58:49;99973.59;;;-0.33;67.30
63552;BME280;49698;48.072;7.800;2023-02-28T07:01:17;99974.00;;;-0.30;66.85
63552;BME280;49698;48.072;7.800;2023-02-28T07:03:46;99977.25;;;-0.28;66.94
63552;BME280;49698;48.072;7.800;2023-02-28T07:06:19;99980.09;;;-0.29;66.67
63552;BME280;49698;48.072;7.800;2023-02-28T07:08:49;99977.25;;;-0.28;66.88
63552;BME280;49698;48.072;7.800;2023-02-28T07:11:18;99981.13;;;-0.23;66.62
63552;BME280;49698;48.072;7.800;2023-02-28T07:13:48;99973.44;;;-0.18;66.40
63552;BME280;49698;48.072;7.800;2023-02-28T07:16:16;99988.91;;;-0.15;66.40
63552;BME280;49698;48.072;7.800;2023-02-28T07:18:44;99979.34;;;-0.10;66.15
63552;BME280;49698;48.072;7.800;2023-02-28T07:21:12;99981.78;;;-0.08;66.14
63552;BME280;49698;48.072;7.800;2023-02-28T07:23:40;99978.56;;;-0.04;65.88
63552;BME280;49698;48.072;7.800;2023-02-28T07:26:12;99983.84;;;0.03;66.10
63552;BME280;49698;48.072;7.800;2023-02-28T07:28:41;99987.53;;;0.09;65.86
63552;BME280;49698;48.072;7.800;2023-02-28T07:31:12;99980.63;;;0.14;65.70
63552;BME280;49698;48.072;7.800;2023-02-28T07:33:42;99975.97;;;0.16;65.61
63552;BME280;49698;48.072;7.800;2023-02-28T07:36:13;99980.22;;;0.17;65.48
63552;BME280;49698;48.072;7.800;2023-02-28T07:38:43;99980.22;;;0.17;65.46
63552;BME280;49698;48.072;7.800;2023-02-28T07:41:14;99980.22;;;0.17;65.42
63552;BME280;49698;48.072;7.800;2023-02-28T07:43:42;99986.16;;;0.19;65.42
63552;BME280;49698;48.072;7.800;2023-02-28T07:46:14;99982.06;;;0.23;65.32
63552;BME280;49698;48.072;7.800;2023-02-28T07:48:43;99986.53;;;0.30;65.11
63552;BME280;49698;48.072;7.800;2023-02-28T07:51:11;99991.22;;;0.34;65.26
63552;BME280;49698;48.072;7.800;2023-02-28T07:53:39;99997.31;;;0.35;65.37
63552;BME280;49698;48.072;7.800;2023-02-28T07:56:11;99989.00;;;0.38;65.35
63552;BME280;49698;48.072;7.800;2023-02-28T07:58:39;99996.75;;;0.39;65.24
63552;BME280;49698;48.072;7.800;2023-02-28T08:01:09;99994.31;;;0.44;65.24
63552;BME280;49698;48.072;7.800;2023-02-28T08:03:39;99989.59;;;0.46;64.93
63552;BME280;49698;48.072;7.800;2023-02-28T08:06:14;99992.06;;;0.48;65.09
63552;BME280;49698;48.072;7.800;2023-02-28T08:08:43;99990.66;;;0.59;64.93
63552;BME280;49698;48.072;7.800;2023-02-28T08:11:11;100001.44;;;0.70;64.61
63552;BME280;49698;48.072;7.800;2023-02-28T08:13:39;99995.72;;;0.73;64.70
63552;BME280;49698;48.072;7.800;2023-02-28T08:16:09;99997.78;;;0.78;64.56
63552;BME280;49698;48.072;7.800;2023-02-28T08:18:39;100003.88;;;0.85;64.22
63552;BME280;49698;48.072;7.800;2023-02-28T08:21:08;99994.50;;;0.96;64.18
63552;BME280;49698;48.072;7.800;2023-02-28T08:23:36;100005.28;;;1.14;63.71
63552;BME280;49698;48.072;7.800;2023-02-28T08:26:05;99999.94;;;1.34;63.49
63552;BME280;49698;48.072;7.800;2023-02-28T08:28:33;99997.28;;;1.41;63.47
63552;BME280;49698;48.072;7.800;2023-02-28T08:31:07;100002.31;;;1.56;63.03
63552;BME280;49698;48.072;7.800;2023-02-28T08:33:35;100002.91;;;1.64;62.79
63552;BME280;49698;48.072;7.800;2023-02-28T08:36:06;100003.69;;;1.71;62.58
63552;BME280;49698;48.072;7.800;2023-02-28T08:38:34;100004.66;;;1.84;62.48
63552;BME280;49698;48.072;7.800;2023-02-28T08:41:04;100000.59;;;2.19;61.65
63552;BME280;49698;48.072;7.800;2023-02-28T08:43:34;100000.31;;;2.59;60.57
63552;BME280;49698;48.072;7.800;2023-02-28T08:46:03;100008.63;;;2.69;60.15
63552;BME280;49698;48.072;7.800;2023-02-28T08:48:33;100008.91;;;2.61;60.12
63552;BME280;49698;48.072;7.800;2023-02-28T08:51:03;100018.88;;;2.66;59.88
63552;BME280;49698;48.072;7.800;2023-02-28T08:53:35;100015.94;;;2.74;60.10
63552;BME280;49698;48.072;7.800;2023-02-28T08:56:05;100023.44;;;2.84;59.55
63552;BME280;49698;48.072;7.800;2023-02-28T08:58:33;100012.59;;;2.85;59.57
63552;BME280;49698;48.072;7.800;2023-02-28T09:01:07;100012.06;;;2.77;59.58
63552;BME280;49698;48.072;7.800;2023-02-28T09:03:36;100019.41;;;2.75;59.47
63552;BME280;49698;48.072;7.800;2023-02-28T09:06:04;100020.88;;;2.70;59.61
63552;BME280;49698;48.072;7.800;2023-02-28T09:08:32;100012.91;;;2.70;59.52
63552;BME280;49698;48.072;7.800;2023-02-28T09:11:02;100021.34;;;2.86;58.91
63552;BME280;49698;48.072;7.800;2023-02-28T09:13:31;100011.53;;;2.86;58.70
63552;BME280;49698;48.072;7.800;2023-02-28T09:16:00;100013.25;;;2.81;58.76
63552;BME280;49698;48.072;7.800;2023-02-28T09:18:29;100013.94;;;2.94;58.18
63552;BME280;49698;48.072;7.800;2023-02-28T09:20:57;100007.44;;;3.34;57.35
63552;BME280;49698;48.072;7.800;2023-02-28T09:23:25;100002.28;;;3.76;56.23
63552;BME280;49698;48.072;7.800;2023-02-28T09:25:54;100008.28;;;4.01;55.24
63552;BME280;49698;48.072;7.800;2023-02-28T09:28:23;100010.44;;;3.92;55.05
63552;BME280;49698;48.072;7.800;2023-02-28T09:30:53;100004.31;;;3.92;55.19
63552;BME280;49698;48.072;7.800;2023-02-28T09:33:23;100009.09;;;4.32;54.39
63552;BME280;49698;48.072;7.800;2023-02-28T09:35:56;100011.53;;;4.87;52.79
63552;BME280;49698;48.072;7.800;2023-02-28T09:38:25;100015.72;;;5.06;52.53
63552;BME280;49698;48.072;7.800;2023-02-28T09:40:56;100018.59;;;4.93;52.63
63552;BME280;49698;48.072;7.800;2023-02-28T09:43:30;100018.69;;;4.75;52.66
63552;BME280;49698;48.072;7.800;2023-02-28T09:46:05;100019.91;;;4.49;53.04
63552;BME280;49698;48.072;7.800;2023-02-28T09:48:41;100017.81;;;4.39;53.24
63552;BME280;49698;48.072;7.800;2023-02-28T09:51:20;100027.44;;;4.22;53.39
63552;BME280;49698;48.072;7.800;2023-02-28T09:53:53;100019.38;;;3.98;53.57
63552;BME280;49698;48.072;7.800;2023-02-28T09:56:32;100023.25;;;3.84;54.11
63552;BME280;49698;48.072;7.800;2023-02-28T09:59:11;100019.25;;;3.75;54.07
63552;BME280;49698;48.072;7.800;2023-02-28T10:01:47;100018.22;;;3.57;54.21
63552;BME280;49698;48.072;7.800;2023-02-28T10:04:41;100018.66;;;3.54;54.66
63552;BME280;49698;48.072;7.800;2023-02-28T10:07:21;100016.00;;;3.54;54.84
63552;BME280;49698;48.072;7.800;2023-02-28T10:09:53;100016.44;;;3.51;54.89
63552;BME280;49698;48.072;7.800;2023-02-28T10:12:28;100013.22;;;3.49;54.81
63552;BME280;49698;48.072;7.800;2023-02-28T10:14:59;100011.00;;;3.46;54.73
63552;BME280;49698;48.072;7.800;2023-02-28T10:17:35;100015.25;;;3.47;54.84
63552;BME280;49698;48.072;7.800;2023-02-28T10:20:12;100017.63;;;3.55;54.87
63552;BME280;49698;48.072;7.800;2023-02-28T10:22:50;100020.97;;;3.51;54.63
63552;BME280;49698;48.072;7.800;2023-02-28T10:25:21;100025.31;;;3.45;54.52
63552;BME280;49698;48.072;7.800;2023-02-28T10:27:50;100029.28;;;3.36;55.17
63552;BME280;49698;48.072;7.800;2023-02-28T10:30:22;100034.81;;;3.34;55.49
63552;BME280;49698;48.072;7.800;2023-02-28T10:32:51;100025.00;;;3.35;55.35
63552;BME280;49698;48.072;7.800;2023-02-28T10:35:22;100034.41;;;3.37;55.15
63552;BME280;49698;48.072;7.800;2023-02-28T10:37:53;100019.69;;;3.35;55.40
63552;BME280;49698;48.072;7.800;2023-02-28T10:40:28;100025.81;;;3.35;55.20
63552;BME280;49698;48.072;7.800;2023-02-28T10:42:57;100027.00;;;3.39;55.05
63552;BME280;49698;48.072;7.800;2023-02-28T10:45:28;100028.19;;;3.43;54.76
63552;BME280;49698;48.072;7.800;2023-02-28T10:48:00;100032.47;;;3.44;54.80
63552;BME280;49698;48.072;7.800;2023-02-28T10:50:34;100034.97;;;3.39;54.26
63552;BME280;49698;48.072;7.800;2023-02-28T10:53:16;100039.75;;;3.31;54.55
63552;BME280;49698;48.072;7.800;2023-02-28T10:55:44;100044.28;;;3.30;54.61
63552;BME280;49698;48.072;7.800;2023-02-28T10:58:23;100040.63;;;3.25;54.64
63552;BME280;49698;48.072;7.800;2023-02-28T11:00:53;100052.16;;;3.18;54.79
63552;BME280;49698;48.072;7.800;2023-02-28T11:03:29;100036.78;;;3.21;54.83
63552;BME280;49698;48.072;7.800;2023-02-28T11:05:59;100040.81;;;3.30;54.66
63552;BME280;49698;48.072;7.800;2023-02-28T11:08:32;100040.50;;;3.38;54.53
63552;BME280;49698;48.072;7.800;2023-02-28T11:11:08;100040.50;;;3.38;54.82
63552;BME280;49698;48.072;7.800;2023-02-28T11:13:36;100042.13;;;3.39;54.68
63552;BME280;49698;48.072;7.800;2023-02-28T11:16:09;100043.31;;;3.43;54.83
63552;BME280;49698;48.072;7.800;2023-02-28T11:18:41;100044.50;;;3.47;54.88
63552;BME280;49698;48.072;7.800;2023-02-28T11:21:16;100043.25;;;3.50;54.98
63552;BME280;49698;48.072;7.800;2023-02-28T11:23:47;100044.50;;;3.47;54.97
63552;BME280;49698;48.072;7.800;2023-02-28T11:26:35;100042.00;;;3.52;54.70
63552;BME280;49698;48.072;7.800;2023-02-28T11:29:11;100042.16;;;3.57;54.71
63552;BME280;49698;48.072;7.800;2023-02-28T11:31:41;100043.91;;;3.63;54.72
63552;BME280;49698;48.072;7.800;2023-02-28T11:34:26;100046.28;;;3.72;54.69
63552;BME280;49698;48.072;7.800;2023-02-28T11:36:56;100046.56;;;3.82;54.20
63552;BME280;49698;48.072;7.800;2023-02-28T11:39:25;100040.38;;;3.88;53.97
63552;BME280;49698;48.072;7.800;2023-02-28T11:42:04;100033.13;;;3.95;53.94
63552;BME280;49698;48.072;7.800;2023-02-28T11:44:43;100043.91;;;4.00;53.98
63552;BME280;49698;48.072;7.800;2023-02-28T11:47:26;100035.63;;;4.08;53.79
63552;BME280;49698;48.072;7.800;2023-02-28T11:50:07;100042.13;;;4.12;53.33
63552;BME280;49698;48.072;7.800;2023-02-28T11:52:45;100041.69;;;3.97;53.47
63552;BME280;49698;48.072;7.800;2023-02-28T11:55:19;100039.56;;;3.87;53.84
63552;BME280;49698;48.072;7.800;2023-02-28T11:58:13;100035.25;;;3.86;53.85
63552;BME280;49698;48.072;7.800;2023-02-28T12:01:03;100031.81;;;3.86;54.02
63552;BME280;49698;48.072;7.800;2023-02-28T12:03:43;100026.97;;;3.95;53.92
63552;BME280;49698;48.072;7.800;2023-02-28T12:06:19;100030.06;;;4.10;53.90
63552;BME280;49698;48.072;7.800;2023-02-28T12:08:59;100036.78;;;4.12;53.65
63552;BME280;49698;48.072;7.800;2023-02-28T12:11:38;100026.81;;;4.08;53.62
63552;BME280;49698;48.072;7.800;2023-02-28T12:14:44;100033.53;;;4.10;53.39
63552;BME280;49698;48.072;7.800;2023-02-28T12:17:26;100034.00;;;4.07;53.57
63552;BME280;49698;48.072;7.800;2023-02-28T12:20:09;100030.44;;;4.13;53.65
63552;BME280;49698;48.072;7.800;2023-02-28T12:22:43;100028.50;;;4.21;53.50
63552;BME280;49698;48.072;7.800;2023-02-28T12:25:37;100017.97;;;4.26;53.24
63552;BME280;49698;48.072;7.800;2023-02-28T12:28:09;100017.31;;;4.30;53.14
63552;BME280;49698;48.072;7.800;2023-02-28T12:30:45;100022.31;;;4.38;52.99
63552;BME280;49698;48.072;7.800;2023-02-28T12:33:16;100024.06;;;4.45;52.84
63552;BME280;49698;48.072;7.800;2023-02-28T12:35:50;100015.19;;;4.51;52.78
63552;BME280;49698;48.072;7.800;2023-02-28T12:38:23;100012.50;;;4.51;52.73
63552;BME280;49698;48.072;7.800;2023-02-28T12:40:54;100014.22;;;4.45;52.91
63552;BME280;49698;48.072;7.800;2023-02-28T12:43:28;100011.56;;;4.45;52.95
63552;BME280;49698;48.072;7.800;2023-02-28T12:46:02;100014.56;;;4.49;52.99
63552;BME280;49698;48.072;7.800;2023-02-28T12:48:37;100016.59;;;4.53;52.88
63552;BME280;49698;48.072;7.800;2023-02-28T12:51:09;100007.66;;;4.59;52.68
63552;BME280;49698;48.072;7.800;2023-02-28T12:53:49;100007.94;;;4.70;52.54
63552;BME280;49698;48.072;7.800;2023-02-28T12:56:27;100003.97;;;4.72;52.64
63552;BME280;49698;48.072;7.800;2023-02-28T12:59:01;100004.31;;;4.76;52.54
63552;BME280;49698;48.072;7.800;2023-02-28T13:01:42;100010.81;;;4.80;52.35
63552;BME280;49698;48.072;7.800;2023-02-28T13:04:32;100006.78;;;4.89;52.40
63552;BME280;49698;48.072;7.800;2023-02-28T13:10:17;100006.56;;;5.14;51.89
63552;BME280;49698;48.072;7.800;2023-02-28T13:12:50;99994.63;;;5.17;51.77
63552;BME280;49698;48.072;7.800;2023-02-28T13:15:21;100000.41;;;5.25;51.72
63552;BME280;49698;48.072;7.800;2023-02-28T13:17:52;100002.16;;;5.31;51.18
63552;BME280;49698;48.072;7.800;2023-02-28T13:20:23;99993.81;;;5.16;51.18
63552;BME280;49698;48.072;7.800;2023-02-28T13:22:54;99995.53;;;5.10;51.36
63552;BME280;49698;48.072;7.800;2023-02-28T13:25:52;99996.72;;;5.14;51.48
63552;BME280;49698;48.072;7.800;2023-02-28T13:28:57;99998.91;;;5.18;51.72
63552;BME280;49698;48.072;7.800;2023-02-28T13:31:26;99997.53;;;5.27;51.40
63552;BME280;49698;48.072;7.800;2023-02-28T13:34:18;100001.81;;;5.28;51.24
63552;BME280;49698;48.072;7.800;2023-02-28T13:36:46;99996.13;;;5.36;51.27
63552;BME280;49698;48.072;7.800;2023-02-28T13:39:48;99993.78;;;5.51;50.71